VIAG/AGR METAR and TAF weather

Enter ICAO airport designator
Station Type Date Time Source
VIAG METAR 2019/05/20 02:30 UTC NOAA

VIAG 200230Z VRB02KT 6000 SKC 33/12 Q1009 NOSIG


Station Type Date Time Source
VIAG Decoded METAR 2019/05/20 02:30 UTC NOAA

Agra, India (VIAG) 27-09N 077-58E 169M
May 19, 2019 - 10:30 PM EDT / 2019.05.20 0230 UTC
Wind: Variable at 2 MPH (2 KT):0
Visibility: 3 mile(s):0
Sky conditions: clear
Temperature: 91 F (33 C)
Dew Point: 53 F (12 C)
Relative Humidity: 27%
Pressure (altimeter): 29.80 in. Hg (1009 hPa)
ob: VIAG 200230Z VRB02KT 6000 SKC 33/12 Q1009 NOSIG
cycle: 2

Station Type Date Time Source
VIAG TAF 2019/05/21 18:30 UTC NOAA

TAF VIAG 211530Z 2118/2206 VRB02KT 6000 SCT030 SCT090
TEMPO 2120/2122 29010KT 6000 TSRA

Example: see airport list